Time;durP1;ratioP1;P1;durP2;ratioP2;P2;SDS_P1;SDS_P2;PMS_P1;PMS_P2;Temp;Humidity;BMP_temperature;BMP_pressure;BME280_temperature;BME280_humidity;BME280_pressure;Samples;Min_cycle;Max_cycle;Signal;HPM_P1;HPM_P2
2022/03/07 00:01:39;;;;;;;;;;;1.20;89.90;;;;;;5074761;28;19912;-66
2022/03/07 00:04:05;;;;;;;;;;;1.10;89.90;;;;;;5074619;28;19909;-68
2022/03/07 00:06:31;;;;;;;;;;;1.10;89.90;;;;;;5073677;28;19912;-68
2022/03/07 00:08:56;;;;;;;;;;;1.20;89.70;;;;;;5075922;28;19958;-65
2022/03/07 00:11:22;;;;;;;;;;;1.00;90.20;;;;;;5074183;28;20376;-65
2022/03/07 00:13:48;;;;;;;;;;;1.00;90.40;;;;;;5075859;28;19909;-68
2022/03/07 00:16:13;;;;;;;;;;;1.00;90.60;;;;;;5075772;28;19917;-69
2022/03/07 00:18:39;;;;;;;;;;;0.90;90.50;;;;;;5075911;28;20399;-69
2022/03/07 00:21:06;;;;;;;;;;;0.90;90.50;;;;;;5075772;28;20000;-69
2022/03/07 00:23:31;;;;;;;;;;;0.90;90.50;;;;;;5067556;28;19970;-66
2022/03/07 00:25:57;;;;;;;;;;;0.90;90.60;;;;;;5073056;28;19912;-66
2022/03/07 00:28:23;;;;;;;;;;;0.90;90.60;;;;;;5075474;28;20311;-66
2022/03/07 00:30:49;;;;;;;;;;;0.90;90.90;;;;;;5075514;28;19908;-65
2022/03/07 00:33:16;;;;;;;;;;;0.90;91.00;;;;;;5074303;28;19908;-65
2022/03/07 00:35:42;;;;;;;;;;;0.70;91.00;;;;;;5075556;28;19947;-66
2022/03/07 00:38:07;;;;;;;;;;;0.80;90.80;;;;;;5074261;28;20630;-68
2022/03/07 00:40:33;;;;;;;;;;;0.80;90.80;;;;;;5075479;28;20338;-69
2022/03/07 00:42:59;;;;;;;;;;;0.80;90.70;;;;;;5075203;28;19915;-69
2022/03/07 00:45:24;;;;;;;;;;;0.90;90.60;;;;;;5075370;28;19934;-66
2022/03/07 00:47:50;;;;;;;;;;;1.00;90.60;;;;;;5075281;28;19909;-66
2022/03/07 00:50:16;;;;;;;;;;;1.00;90.50;;;;;;5075287;28;19944;-65
2022/03/07 00:52:41;;;;;;;;;;;1.10;90.50;;;;;;5073693;28;19916;-67
2022/03/07 00:55:08;;;;;;;;;;;1.00;90.50;;;;;;5074866;28;19924;-65
2022/03/07 00:57:34;;;;;;;;;;;0.80;90.70;;;;;;5075109;28;19908;-67
2022/03/07 00:59:59;;;;;;;;;;;0.80;90.90;;;;;;5074928;28;19908;-66
2022/03/07 01:02:25;;;;;;;;;;;0.70;91.00;;;;;;5074921;28;20271;-65
2022/03/07 01:04:51;;;;;;;;;;;0.70;91.10;;;;;;5074913;28;19948;-65
2022/03/07 01:07:17;;;;;;;;;;;0.70;91.00;;;;;;5074896;28;19912;-65
2022/03/07 01:09:42;;;;;;;;;;;0.50;91.30;;;;;;5074856;28;20448;-66
2022/03/07 01:12:08;;;;;;;;;;;0.40;91.40;;;;;;5074713;28;19915;-66
2022/03/07 01:14:34;;;;;;;;;;;0.30;91.60;;;;;;5074552;28;19908;-65
2022/03/07 01:16:59;;;;;;;;;;;0.40;91.50;;;;;;5074670;28;19913;-68
2022/03/07 01:19:25;;;;;;;;;;;0.40;91.50;;;;;;5073149;28;19915;-67
2022/03/07 01:21:51;;;;;;;;;;;0.40;91.60;;;;;;5074165;28;19909;-65
2022/03/07 01:24:17;;;;;;;;;;;0.40;91.50;;;;;;5071543;28;19951;-69
2022/03/07 01:26:43;;;;;;;;;;;0.50;91.50;;;;;;5066222;28;20360;-66
2022/03/07 01:29:09;;;;;;;;;;;0.40;91.50;;;;;;5052517;28;19915;-69
2022/03/07 01:31:34;;;;;;;;;;;0.30;91.70;;;;;;5052889;28;20006;-65
2022/03/07 01:34:00;;;;;;;;;;;0.30;91.80;;;;;;5054430;28;20387;-66
2022/03/07 01:36:26;;;;;;;;;;;0.40;91.80;;;;;;5054303;28;19916;-66
2022/03/07 01:38:51;;;;;;;;;;;0.50;91.80;;;;;;5054250;28;19934;-66
2022/03/07 01:41:17;;;;;;;;;;;0.60;91.40;;;;;;5069522;28;20018;-66
2022/03/07 01:43:43;;;;;;;;;;;0.60;91.40;;;;;;5069479;28;19908;-68
2022/03/07 01:46:09;;;;;;;;;;;0.60;91.50;;;;;;5052686;28;20366;-67
2022/03/07 01:48:37;;;;;;;;;;;0.50;91.60;;;;;;5054004;28;19916;-68
2022/03/07 01:51:03;;;;;;;;;;;0.30;91.80;;;;;;5053816;28;19916;-65
2022/03/07 01:53:29;;;;;;;;;;;-0.10;92.40;;;;;;5052332;28;19913;-67
2022/03/07 01:55:55;;;;;;;;;;;-0.10;92.60;;;;;;5053666;28;20024;-67
2022/03/07 01:58:21;;;;;;;;;;;0.00;92.60;;;;;;5052320;28;19914;-66
2022/03/07 02:00:47;;;;;;;;;;;0.00;92.70;;;;;;5054039;28;20034;-67
2022/03/07 02:03:12;;;;;;;;;;;0.10;92.70;;;;;;5054008;28;19908;-68
2022/03/07 02:05:39;;;;;;;;;;;0.00;92.80;;;;;;5053838;28;19909;-66
2022/03/07 02:08:04;;;;;;;;;;;-0.20;92.90;;;;;;5069147;28;19913;-69
2022/03/07 02:10:30;;;;;;;;;;;-0.50;93.50;;;;;;5073758;28;20387;-68
2022/03/07 02:12:55;;;;;;;;;;;-0.80;94.10;;;;;;5073301;28;20662;-66
2022/03/07 02:15:21;;;;;;;;;;;-0.60;93.90;;;;;;5073112;28;20003;-68
2022/03/07 02:17:47;;;;;;;;;;;-0.20;93.30;;;;;;5073391;28;19912;-68
2022/03/07 02:20:13;;;;;;;;;;;-0.10;92.90;;;;;;5073519;28;19981;-66
2022/03/07 02:22:39;;;;;;;;;;;0.00;92.80;;;;;;5073321;28;19919;-69
2022/03/07 02:25:05;;;;;;;;;;;0.00;92.80;;;;;;5073197;28;19916;-70
2022/03/07 02:27:31;;;;;;;;;;;-0.10;92.90;;;;;;5073622;28;20275;-68
2022/03/07 02:29:59;;;;;;;;;;;-0.20;93.00;;;;;;5072997;28;19969;-69
2022/03/07 02:32:25;;;;;;;;;;;-0.10;93.20;;;;;;5073675;28;19912;-69
2022/03/07 02:34:51;;;;;;;;;;;-0.10;92.90;;;;;;5073493;28;19912;-68
2022/03/07 02:37:17;;;;;;;;;;;0.10;92.80;;;;;;5073456;28;20034;-68
2022/03/07 02:39:43;;;;;;;;;;;0.10;92.70;;;;;;5072406;28;19912;-66
2022/03/07 02:42:08;;;;;;;;;;;0.10;92.70;;;;;;5072759;28;20398;-69
2022/03/07 02:44:34;;;;;;;;;;;0.20;92.60;;;;;;5073135;28;19904;-69
2022/03/07 02:47:00;;;;;;;;;;;0.20;92.70;;;;;;5073365;28;19955;-66
2022/03/07 02:49:25;;;;;;;;;;;0.30;92.60;;;;;;5072228;28;19912;-67
2022/03/07 02:51:51;;;;;;;;;;;0.40;92.60;;;;;;5073423;28;20274;-67
2022/03/07 02:54:17;;;;;;;;;;;0.40;92.30;;;;;;5073387;28;20442;-70
2022/03/07 02:56:44;;;;;;;;;;;0.50;92.30;;;;;;5073008;28;19916;-69
2022/03/07 02:59:10;;;;;;;;;;;0.60;92.10;;;;;;5073193;28;19908;-69
2022/03/07 03:01:36;;;;;;;;;;;0.60;92.10;;;;;;5073305;28;19954;-68
2022/03/07 03:04:02;;;;;;;;;;;0.40;92.50;;;;;;5072022;28;19916;-67
2022/03/07 03:06:28;;;;;;;;;;;0.20;92.80;;;;;;5073029;28;19908;-66
2022/03/07 03:08:54;;;;;;;;;;;0.10;92.90;;;;;;5073126;28;19916;-66
2022/03/07 03:11:20;;;;;;;;;;;0.00;93.30;;;;;;5072889;28;19908;-68
2022/03/07 03:13:46;;;;;;;;;;;-0.10;93.50;;;;;;5071686;28;20363;-66
2022/03/07 03:16:11;;;;;;;;;;;0.00;93.50;;;;;;5072956;28;19921;-66
2022/03/07 03:18:37;;;;;;;;;;;-0.10;93.60;;;;;;5072719;28;19914;-66
2022/03/07 03:21:02;;;;;;;;;;;-0.20;93.70;;;;;;5072680;28;19915;-65
2022/03/07 03:23:28;;;;;;;;;;;-0.50;93.90;;;;;;5073022;28;19913;-65
2022/03/07 03:25:54;;;;;;;;;;;-0.70;94.30;;;;;;5072990;28;19908;-68
2022/03/07 03:28:20;;;;;;;;;;;-0.80;94.80;;;;;;5071658;28;19916;-66
2022/03/07 03:30:46;;;;;;;;;;;-0.80;95.00;;;;;;5071529;28;20263;-68
2022/03/07 03:33:12;;;;;;;;;;;-1.00;95.10;;;;;;5072342;28;19912;-67
2022/03/07 03:35:38;;;;;;;;;;;-1.10;95.50;;;;;;5072624;28;20368;-68
2022/03/07 03:38:08;;;;;;;;;;;-1.00;95.50;;;;;;5072928;28;19908;-68
2022/03/07 03:40:34;;;;;;;;;;;-1.00;95.40;;;;;;5072876;28;19920;-68
2022/03/07 03:43:00;;;;;;;;;;;-1.00;95.40;;;;;;5076192;28;19908;-68
2022/03/07 03:45:25;;;;;;;;;;;-0.90;95.30;;;;;;5076387;28;19970;-68
2022/03/07 03:47:51;;;;;;;;;;;-0.70;95.10;;;;;;5076288;28;19915;-69
2022/03/07 03:50:17;;;;;;;;;;;-0.60;94.90;;;;;;5076251;28;19908;-68
2022/03/07 03:52:43;;;;;;;;;;;-0.60;95.00;;;;;;5074866;28;19958;-66
2022/03/07 03:55:10;;;;;;;;;;;-0.60;95.00;;;;;;5074897;28;19927;-68
2022/03/07 03:57:36;;;;;;;;;;;-0.80;95.00;;;;;;5076015;28;19908;-69
2022/03/07 04:00:04;;;;;;;;;;;-0.80;95.00;;;;;;5075968;28;19954;-69
2022/03/07 04:02:30;;;;;;;;;;;-0.80;95.00;;;;;;5076030;28;19999;-68
2022/03/07 04:04:56;;;;;;;;;;;-0.70;95.00;;;;;;5074517;28;19999;-68
2022/03/07 04:07:22;;;;;;;;;;;-0.90;95.40;;;;;;5075829;28;20382;-69
2022/03/07 04:09:47;;;;;;;;;;;-0.80;95.70;;;;;;5075736;28;19962;-68
2022/03/07 04:12:13;;;;;;;;;;;-0.80;95.20;;;;;;5075746;28;19912;-67
2022/03/07 04:14:39;;;;;;;;;;;-0.90;95.50;;;;;;5074366;28;19909;-68
2022/03/07 04:17:04;;;;;;;;;;;-1.00;95.70;;;;;;5075938;28;19913;-69
2022/03/07 04:19:30;;;;;;;;;;;-1.10;95.90;;;;;;5075910;28;19909;-69
2022/03/07 04:21:56;;;;;;;;;;;-0.80;95.70;;;;;;5075786;28;19959;-66
2022/03/07 04:24:21;;;;;;;;;;;-0.60;95.20;;;;;;5075682;28;19908;-68
2022/03/07 04:26:47;;;;;;;;;;;-0.50;95.20;;;;;;5076018;28;19916;-65
2022/03/07 04:29:13;;;;;;;;;;;-0.40;94.90;;;;;;5074474;28;20486;-65
2022/03/07 04:31:39;;;;;;;;;;;-0.50;95.00;;;;;;5075290;28;19919;-68
2022/03/07 04:34:06;;;;;;;;;;;-1.00;95.60;;;;;;5074806;28;19908;-67
2022/03/07 04:36:33;;;;;;;;;;;-0.90;95.60;;;;;;5074696;28;20438;-68
2022/03/07 04:38:58;;;;;;;;;;;-0.90;95.80;;;;;;5071985;28;19908;-66
2022/03/07 04:41:24;;;;;;;;;;;-0.90;95.80;;;;;;5055089;28;19912;-67
2022/03/07 04:43:50;;;;;;;;;;;-0.70;95.70;;;;;;5066858;28;19920;-69
2022/03/07 04:46:15;;;;;;;;;;;-0.70;95.40;;;;;;5072893;28;20436;-66
2022/03/07 04:48:41;;;;;;;;;;;-0.60;95.30;;;;;;5074831;28;19914;-66
2022/03/07 04:51:06;;;;;;;;;;;-0.70;95.20;;;;;;5075266;28;20256;-65
2022/03/07 04:53:32;;;;;;;;;;;-0.70;95.60;;;;;;5074784;28;19912;-68
2022/03/07 04:55:58;;;;;;;;;;;-0.90;95.70;;;;;;5073729;28;19924;-66
2022/03/07 04:58:24;;;;;;;;;;;-0.90;95.70;;;;;;5074992;28;19908;-66
2022/03/07 05:00:49;;;;;;;;;;;-0.90;95.60;;;;;;5074746;28;19961;-66
2022/03/07 05:03:15;;;;;;;;;;;-0.80;95.70;;;;;;5075052;28;20061;-68
2022/03/07 05:05:41;;;;;;;;;;;-1.00;95.60;;;;;;5074998;28;19982;-66
2022/03/07 05:08:06;;;;;;;;;;;-1.10;95.80;;;;;;5073618;28;19912;-66
2022/03/07 05:10:32;;;;;;;;;;;-1.00;96.00;;;;;;5074935;28;20045;-68
2022/03/07 05:12:57;;;;;;;;;;;-1.10;96.10;;;;;;5074498;28;19912;-66
2022/03/07 05:15:23;;;;;;;;;;;-1.10;96.10;;;;;;5074572;28;20360;-68
2022/03/07 05:17:51;;;;;;;;;;;-1.10;96.10;;;;;;5073899;28;19908;-67
2022/03/07 05:20:17;;;;;;;;;;;-1.10;96.20;;;;;;5074506;28;20360;-68
2022/03/07 05:22:43;;;;;;;;;;;-1.10;96.40;;;;;;5074566;28;19942;-65
2022/03/07 05:25:09;;;;;;;;;;;-1.20;96.30;;;;;;5073352;28;20415;-66
2022/03/07 05:27:35;;;;;;;;;;;-0.90;95.90;;;;;;5073175;28;19916;-66
2022/03/07 05:30:01;;;;;;;;;;;-0.80;95.70;;;;;;5072728;28;20808;-69
2022/03/07 05:32:26;;;;;;;;;;;-1.20;96.30;;;;;;5065551;28;20386;-66
2022/03/07 05:34:52;;;;;;;;;;;-1.40;96.70;;;;;;5052259;28;20008;-65
2022/03/07 05:37:17;;;;;;;;;;;-1.30;96.60;;;;;;5052911;28;20372;-66
2022/03/07 05:39:43;;;;;;;;;;;-1.30;96.60;;;;;;5053254;28;20360;-66
2022/03/07 05:42:09;;;;;;;;;;;-1.30;96.80;;;;;;5054323;28;19909;-69
2022/03/07 05:44:34;;;;;;;;;;;-1.30;97.00;;;;;;5062623;28;19916;-65
2022/03/07 05:47:00;;;;;;;;;;;-1.30;96.80;;;;;;5074182;28;19935;-65
2022/03/07 05:49:26;;;;;;;;;;;-1.30;96.80;;;;;;5073987;28;19921;-67
2022/03/07 05:51:51;;;;;;;;;;;-1.10;96.30;;;;;;5072605;28;19912;-66
2022/03/07 05:54:17;;;;;;;;;;;-1.10;96.20;;;;;;5073656;28;19947;-68
2022/03/07 05:56:43;;;;;;;;;;;-1.00;96.30;;;;;;5073875;28;20046;-66
2022/03/07 05:59:08;;;;;;;;;;;-1.00;96.20;;;;;;5073592;28;19915;-66
2022/03/07 06:01:35;;;;;;;;;;;-0.90;96.00;;;;;;5072890;28;20425;-68
2022/03/07 06:04:00;;;;;;;;;;;-0.90;95.90;;;;;;5072862;28;19915;-69
2022/03/07 06:06:26;;;;;;;;;;;-1.20;96.20;;;;;;5073334;28;19912;-70
2022/03/07 06:08:52;;;;;;;;;;;-1.20;96.40;;;;;;5073852;28;19912;-67
2022/03/07 06:11:17;;;;;;;;;;;-1.10;96.70;;;;;;5073872;28;19919;-68
2022/03/07 06:13:43;;;;;;;;;;;-0.20;99.90;;;;;;5072570;28;19908;-66
2022/03/07 06:16:09;;;;;;;;;;;-0.30;97.00;;;;;;5073386;28;20019;-65
2022/03/07 06:18:34;;;;;;;;;;;-0.60;97.20;;;;;;5073630;28;20367;-66
2022/03/07 06:21:00;;;;;;;;;;;-0.70;97.20;;;;;;5072942;28;19919;-65
2022/03/07 06:23:26;;;;;;;;;;;-1.00;97.60;;;;;;5072814;28;20037;-69
2022/03/07 06:25:52;;;;;;;;;;;-1.10;97.60;;;;;;5055631;28;19913;-65
2022/03/07 06:28:17;;;;;;;;;;;-1.10;98.30;;;;;;5072732;28;19916;-68
2022/03/07 06:30:46;;;;;;;;;;;-1.00;98.10;;;;;;5071282;28;19953;-68
2022/03/07 06:33:13;;;;;;;;;;;-1.10;98.20;;;;;;5070965;28;20341;-67
2022/03/07 06:35:38;;;;;;;;;;;-1.00;97.90;;;;;;5072192;28;19959;-68
2022/03/07 06:38:04;;;;;;;;;;;-1.20;98.10;;;;;;5071723;28;19943;-70
2022/03/07 06:40:31;;;;;;;;;;;-0.80;98.00;;;;;;5071499;28;19998;-68
2022/03/07 06:42:57;;;;;;;;;;;-0.60;97.40;;;;;;5072774;28;19908;-68
2022/03/07 06:45:23;;;;;;;;;;;-0.60;97.40;;;;;;5072841;28;19912;-65
2022/03/07 06:47:48;;;;;;;;;;;-0.50;97.60;;;;;;5064663;28;19912;-68
2022/03/07 06:50:15;;;;;;;;;;;-0.40;97.60;;;;;;5072059;28;19919;-65
2022/03/07 06:52:40;;;;;;;;;;;-0.40;97.50;;;;;;5088404;28;19909;-65
2022/03/07 06:55:06;;;;;;;;;;;-0.30;97.10;;;;;;5055780;28;20364;-68
2022/03/07 06:57:32;;;;;;;;;;;-0.20;96.90;;;;;;5064835;28;20279;-66
2022/03/07 06:59:57;;;;;;;;;;;-0.20;97.00;;;;;;5072773;28;19990;-66
2022/03/07 07:02:23;;;;;;;;;;;-0.10;96.80;;;;;;5073139;28;20470;-68
2022/03/07 07:04:49;;;;;;;;;;;-0.10;96.80;;;;;;5071084;28;19908;-67
2022/03/07 07:07:16;;;;;;;;;;;0.10;96.70;;;;;;5068549;28;19991;-68
2022/03/07 07:09:41;;;;;;;;;;;0.30;96.60;;;;;;5070694;28;19908;-65
2022/03/07 07:12:08;;;;;;;;;;;0.20;96.90;;;;;;5070598;28;19912;-68
2022/03/07 07:14:33;;;;;;;;;;;0.40;97.30;;;;;;5070640;28;19913;-68
2022/03/07 07:16:59;;;;;;;;;;;0.60;97.10;;;;;;5073695;28;20288;-64
2022/03/07 07:19:25;;;;;;;;;;;0.50;96.60;;;;;;5074579;28;19948;-68
2022/03/07 07:21:51;;;;;;;;;;;0.60;96.70;;;;;;5074709;28;19908;-68
2022/03/07 07:24:16;;;;;;;;;;;1.10;96.70;;;;;;5074327;28;19962;-68
2022/03/07 07:26:42;;;;;;;;;;;1.30;96.30;;;;;;5074995;28;20015;-68
2022/03/07 07:29:08;;;;;;;;;;;1.20;96.00;;;;;;5073220;28;20007;-68
2022/03/07 07:31:33;;;;;;;;;;;1.30;96.20;;;;;;5073778;28;20003;-68
2022/03/07 07:33:59;;;;;;;;;;;1.40;95.60;;;;;;5073838;28;19912;-67
2022/03/07 07:36:24;;;;;;;;;;;1.20;95.40;;;;;;5074832;28;20383;-66
2022/03/07 07:38:50;;;;;;;;;;;1.30;95.60;;;;;;5074649;28;20355;-65
2022/03/07 07:41:15;;;;;;;;;;;1.50;95.30;;;;;;5075197;28;19908;-68
2022/03/07 07:43:41;;;;;;;;;;;1.80;95.40;;;;;;5074300;28;19971;-65
2022/03/07 07:46:07;;;;;;;;;;;1.90;95.50;;;;;;5074557;28;20018;-68
2022/03/07 07:48:32;;;;;;;;;;;1.90;95.00;;;;;;5074767;28;19962;-68
2022/03/07 07:50:58;;;;;;;;;;;2.20;95.30;;;;;;5074383;28;19994;-69
2022/03/07 07:53:23;;;;;;;;;;;2.20;94.90;;;;;;5074590;28;19908;-70
2022/03/07 07:55:49;;;;;;;;;;;2.20;94.60;;;;;;5074747;28;19919;-70
2022/03/07 07:58:15;;;;;;;;;;;2.20;95.30;;;;;;5074997;28;19981;-68
2022/03/07 08:00:40;;;;;;;;;;;2.30;94.80;;;;;;5074460;28;19908;-67
2022/03/07 08:03:07;;;;;;;;;;;2.50;94.70;;;;;;5074146;28;19916;-70
2022/03/07 08:05:33;;;;;;;;;;;2.70;94.30;;;;;;5074449;28;19908;-66
2022/03/07 08:07:59;;;;;;;;;;;2.70;94.60;;;;;;5074077;28;19954;-69
2022/03/07 08:10:24;;;;;;;;;;;2.70;94.30;;;;;;5075317;28;19909;-65
2022/03/07 08:12:50;;;;;;;;;;;2.70;94.20;;;;;;5073114;28;19912;-66
2022/03/07 08:15:16;;;;;;;;;;;2.80;94.70;;;;;;5072242;28;19928;-68
2022/03/07 08:17:46;;;;;;;;;;;2.60;95.00;;;;;;5073217;28;20351;-70
2022/03/07 08:20:15;;;;;;;;;;;2.60;94.80;;;;;;5074147;28;19908;-66
2022/03/07 08:22:42;;;;;;;;;;;2.80;94.90;;;;;;5073396;28;19922;-69
2022/03/07 08:25:09;;;;;;;;;;;2.50;95.10;;;;;;5072388;28;19909;-70
2022/03/07 08:27:34;;;;;;;;;;;2.50;95.30;;;;;;5070834;28;19947;-70
2022/03/07 08:30:02;;;;;;;;;;;2.60;95.20;;;;;;5063170;28;19971;-67
2022/03/07 08:32:28;;;;;;;;;;;2.80;94.70;;;;;;5071729;28;19908;-69
2022/03/07 08:34:55;;;;;;;;;;;3.00;95.30;;;;;;5075721;28;19958;-70
2022/03/07 08:37:21;;;;;;;;;;;3.20;94.90;;;;;;5075262;28;19926;-71
2022/03/07 08:39:46;;;;;;;;;;;3.20;94.80;;;;;;5074602;28;20318;-70
2022/03/07 08:42:12;;;;;;;;;;;3.20;95.30;;;;;;5073257;28;19913;-70
2022/03/07 08:44:38;;;;;;;;;;;3.30;95.50;;;;;;5073163;28;19908;-69
2022/03/07 08:47:03;;;;;;;;;;;3.40;95.30;;;;;;5074909;28;19962;-70
2022/03/07 08:49:29;;;;;;;;;;;3.60;95.20;;;;;;5075244;28;19908;-69
2022/03/07 08:51:54;;;;;;;;;;;3.70;95.20;;;;;;5071794;28;19971;-70
2022/03/07 08:54:20;;;;;;;;;;;3.40;94.80;;;;;;5063643;28;19908;-66
2022/03/07 08:56:46;;;;;;;;;;;3.60;95.30;;;;;;5052489;28;20474;-70
2022/03/07 08:59:11;;;;;;;;;;;3.80;94.80;;;;;;5051982;28;19915;-69
2022/03/07 09:01:37;;;;;;;;;;;3.70;94.80;;;;;;5053534;28;19923;-69
2022/03/07 09:04:03;;;;;;;;;;;3.60;95.10;;;;;;5053162;28;19916;-66
2022/03/07 09:06:29;;;;;;;;;;;3.80;95.30;;;;;;5053971;28;19908;-70
2022/03/07 09:08:55;;;;;;;;;;;4.10;94.60;;;;;;5054872;28;20261;-70
2022/03/07 09:11:20;;;;;;;;;;;4.10;94.50;;;;;;5053096;28;19915;-65
2022/03/07 09:13:46;;;;;;;;;;;4.30;93.30;;;;;;5053050;28;19935;-70
2022/03/07 09:16:14;;;;;;;;;;;4.40;94.00;;;;;;5052759;28;19931;-70
2022/03/07 09:18:40;;;;;;;;;;;4.70;94.60;;;;;;5053383;28;19952;-70
2022/03/07 09:21:06;;;;;;;;;;;5.00;94.80;;;;;;5052166;28;19962;-70
2022/03/07 09:23:37;;;;;;;;;;;4.90;93.70;;;;;;5052903;28;19912;-70
2022/03/07 09:26:03;;;;;;;;;;;4.90;93.80;;;;;;5052664;28;19940;-70
2022/03/07 09:28:28;;;;;;;;;;;5.20;92.70;;;;;;5052678;28;19913;-68
2022/03/07 09:30:54;;;;;;;;;;;5.10;93.70;;;;;;5053784;28;19912;-70
2022/03/07 09:33:20;;;;;;;;;;;4.70;93.20;;;;;;5052543;28;19923;-66
2022/03/07 09:35:45;;;;;;;;;;;5.10;92.90;;;;;;5056247;28;20356;-69
2022/03/07 09:38:11;;;;;;;;;;;5.20;93.10;;;;;;5064724;28;19909;-72
2022/03/07 09:40:36;;;;;;;;;;;5.30;92.20;;;;;;5051065;28;20064;-70
2022/03/07 09:43:03;;;;;;;;;;;5.30;92.60;;;;;;5052223;28;19908;-68
2022/03/07 09:45:28;;;;;;;;;;;5.40;93.20;;;;;;5052440;28;19946;-68
2022/03/07 09:47:56;;;;;;;;;;;5.50;92.80;;;;;;5052131;28;20356;-65
2022/03/07 09:50:22;;;;;;;;;;;5.40;92.10;;;;;;5052365;28;19909;-69
2022/03/07 09:52:48;;;;;;;;;;;5.40;93.40;;;;;;5052637;28;19999;-68
2022/03/07 09:55:16;;;;;;;;;;;5.80;92.60;;;;;;5053710;28;19997;-68
2022/03/07 09:57:42;;;;;;;;;;;5.80;93.10;;;;;;5054143;28;19919;-68
2022/03/07 10:00:08;;;;;;;;;;;6.10;92.10;;;;;;5054147;28;19908;-66
2022/03/07 10:02:34;;;;;;;;;;;6.10;92.00;;;;;;5054055;28;19909;-69
2022/03/07 10:05:01;;;;;;;;;;;6.20;92.30;;;;;;5053994;28;19912;-66
2022/03/07 10:07:28;;;;;;;;;;;6.40;92.40;;;;;;5052708;28;19909;-65
2022/03/07 10:10:06;;;;;;;;;;;6.60;92.00;;;;;;5053928;28;20425;-69
2022/03/07 10:12:32;;;;;;;;;;;6.60;91.80;;;;;;5053557;28;19955;-69
2022/03/07 10:14:58;;;;;;;;;;;6.70;92.30;;;;;;5053501;28;19913;-65
2022/03/07 10:17:26;;;;;;;;;;;6.60;91.10;;;;;;5053636;28;19913;-65
2022/03/07 10:19:53;;;;;;;;;;;6.80;91.00;;;;;;5053679;28;19908;-69
2022/03/07 10:22:23;;;;;;;;;;;7.20;92.00;;;;;;5053527;28;20253;-66
2022/03/07 10:25:15;;;;;;;;;;;7.20;90.70;;;;;;5053637;28;19934;-70
2022/03/07 10:27:44;;;;;;;;;;;6.60;90.00;;;;;;5052434;28;19912;-69
2022/03/07 10:30:14;;;;;;;;;;;6.80;90.10;;;;;;5073663;28;19912;-70
2022/03/07 10:32:39;;;;;;;;;;;6.80;90.80;;;;;;5073525;28;19915;-70
2022/03/07 10:35:06;;;;;;;;;;;7.30;91.60;;;;;;5073457;28;20580;-70
2022/03/07 10:37:33;;;;;;;;;;;7.00;90.50;;;;;;5070922;28;19912;-69
2022/03/07 10:39:58;;;;;;;;;;;7.40;89.70;;;;;;5072071;28;19915;-70
2022/03/07 10:42:24;;;;;;;;;;;7.50;90.30;;;;;;5071824;28;19908;-71
2022/03/07 10:44:50;;;;;;;;;;;;;;;;;;5071018;28;20382;-66
2022/03/07 10:47:19;;;;;;;;;;;7.80;97.00;;;;;;5070721;28;19916;-68
2022/03/07 10:49:46;;;;;;;;;;;7.80;97.30;;;;;;5070990;28;19920;-67
2022/03/07 10:52:12;;;;;;;;;;;7.60;97.80;;;;;;5070314;28;19998;-67
2022/03/07 10:54:38;;;;;;;;;;;7.60;96.10;;;;;;5071210;28;20006;-68
2022/03/07 10:57:06;;;;;;;;;;;7.60;96.80;;;;;;5070825;28;19912;-67
2022/03/07 10:59:32;;;;;;;;;;;7.70;97.00;;;;;;5069511;28;19969;-65
2022/03/07 11:02:10;;;;;;;;;;;;;;;;;;;;;
2022/03/07 11:04:37;;;;;;;;;;;7.20;96.00;;;;;;5060504;28;19909;-68
2022/03/07 11:07:03;;;;;;;;;;;6.80;90.80;;;;;;5057588;28;19909;-66
2022/03/07 11:09:29;;;;;;;;;;;7.30;90.70;;;;;;5067191;28;19908;-69
2022/03/07 11:11:54;;;;;;;;;;;7.60;90.60;;;;;;5069554;28;19995;-69
2022/03/07 11:14:21;;;;;;;;;;;7.70;89.20;;;;;;5070840;28;20326;-66
2022/03/07 11:16:49;;;;;;;;;;;7.30;90.00;;;;;;5070190;28;19975;-67
2022/03/07 11:19:19;;;;;;;;;;;6.70;86.70;;;;;;5066000;28;19909;-67
2022/03/07 11:21:45;;;;;;;;;;;7.40;90.30;;;;;;5066929;28;19909;-67
2022/03/07 11:24:11;;;;;;;;;;;7.70;89.10;;;;;;5049971;28;19912;-66
2022/03/07 11:26:41;;;;;;;;;;;7.70;86.90;;;;;;5054969;28;19939;-65
2022/03/07 11:29:08;;;;;;;;;;;8.20;97.50;;;;;;5052825;28;19908;-67
2022/03/07 11:31:34;;;;;;;;;;;8.50;90.10;;;;;;5063749;28;19951;-66
2022/03/07 11:34:05;;;;;;;;;;;8.90;92.80;;;;;;5050846;28;19956;-66
2022/03/07 11:36:30;;;;;;;;;;;8.70;90.60;;;;;;5050333;28;19921;-67
2022/03/07 11:38:57;;;;;;;;;;;8.60;89.90;;;;;;5050457;28;20022;-67
2022/03/07 11:41:27;;;;;;;;;;;8.60;88.90;;;;;;5050211;28;19912;-66
2022/03/07 11:43:54;;;;;;;;;;;8.20;90.90;;;;;;5050273;28;19948;-65
2022/03/07 11:46:24;;;;;;;;;;;8.40;90.70;;;;;;5061747;28;19909;-66
2022/03/07 11:48:49;;;;;;;;;;;8.70;90.80;;;;;;5070406;28;19912;-64
2022/03/07 11:51:19;;;;;;;;;;;8.60;89.60;;;;;;5070117;28;19909;-67
2022/03/07 11:53:45;;;;;;;;;;;8.50;90.30;;;;;;5069188;28;20257;-66
2022/03/07 11:56:21;;;;;;;;;;;8.10;90.30;;;;;;5069684;28;19916;-67
2022/03/07 11:58:51;;;;;;;;;;;8.20;88.60;;;;;;5070475;28;19913;-66
2022/03/07 12:01:17;;;;;;;;;;;8.30;89.10;;;;;;5063332;28;20352;-67
2022/03/07 12:03:43;;;;;;;;;;;7.80;90.10;;;;;;5051905;28;19915;-67
2022/03/07 12:06:10;;;;;;;;;;;7.80;88.60;;;;;;5052289;28;19919;-66
2022/03/07 12:08:46;;;;;;;;;;;7.80;89.80;;;;;;5053391;28;19995;-66
2022/03/07 12:11:32;;;;;;;;;;;8.00;87.40;;;;;;5053636;28;20372;-67
2022/03/07 12:14:03;;;;;;;;;;;7.90;87.30;;;;;;5053224;28;19912;-66
2022/03/07 12:16:33;;;;;;;;;;;8.00;88.30;;;;;;5053250;28;19920;-67
2022/03/07 12:19:06;;;;;;;;;;;7.90;86.30;;;;;;5053360;28;19909;-66
2022/03/07 12:21:32;;;;;;;;;;;8.20;90.80;;;;;;5071207;28;19919;-66
2022/03/07 12:23:58;;;;;;;;;;;7.90;89.00;;;;;;5053034;28;20003;-67
2022/03/07 12:26:24;;;;;;;;;;;7.80;86.50;;;;;;5053410;28;20063;-67
2022/03/07 12:28:50;;;;;;;;;;;7.60;87.80;;;;;;5052515;28;20415;-66
2022/03/07 12:31:15;;;;;;;;;;;7.70;87.50;;;;;;5052896;28;19908;-66
2022/03/07 12:33:42;;;;;;;;;;;8.00;89.30;;;;;;5053305;28;19909;-67
2022/03/07 12:36:09;;;;;;;;;;;7.90;87.30;;;;;;5053111;28;20006;-67
2022/03/07 12:38:49;;;;;;;;;;;7.90;88.10;;;;;;5068345;28;20393;-66
2022/03/07 12:41:17;;;;;;;;;;;7.90;87.80;;;;;;5069780;28;20005;-67
2022/03/07 12:43:46;;;;;;;;;;;7.90;86.30;;;;;;5073173;28;19915;-67
2022/03/07 12:46:12;;;;;;;;;;;7.60;85.60;;;;;;5072895;28;19908;-66
2022/03/07 12:48:45;;;;;;;;;;;7.50;87.40;;;;;;5072949;28;19923;-66
2022/03/07 12:51:12;;;;;;;;;;;7.70;88.50;;;;;;5072771;28;19912;-66
2022/03/07 12:53:46;;;;;;;;;;;7.40;88.20;;;;;;5072519;28;19965;-66
2022/03/07 12:56:13;;;;;;;;;;;7.20;87.60;;;;;;5072406;28;19923;-67
2022/03/07 12:58:46;;;;;;;;;;;7.30;89.30;;;;;;5070782;28;19908;-67
2022/03/07 13:01:12;;;;;;;;;;;7.50;88.10;;;;;;5070939;28;19912;-66
2022/03/07 13:03:37;;;;;;;;;;;7.10;88.00;;;;;;5072989;28;20356;-66
2022/03/07 13:06:03;;;;;;;;;;;7.10;88.20;;;;;;5072316;28;19908;-68
2022/03/07 13:08:29;;;;;;;;;;;7.00;88.40;;;;;;5072485;28;19909;-66
2022/03/07 13:10:54;;;;;;;;;;;7.30;90.90;;;;;;5071943;28;19912;-67
2022/03/07 13:13:20;;;;;;;;;;;6.90;90.20;;;;;;5072276;28;19908;-66
2022/03/07 13:15:46;;;;;;;;;;;6.90;89.10;;;;;;5072641;28;20010;-67
2022/03/07 13:18:12;;;;;;;;;;;7.30;88.40;;;;;;5072177;28;19909;-67
2022/03/07 13:20:38;;;;;;;;;;;7.50;89.80;;;;;;5072358;28;19908;-66
2022/03/07 13:23:04;;;;;;;;;;;7.60;89.90;;;;;;5070525;28;19912;-67
2022/03/07 13:25:40;;;;;;;;;;;7.50;86.40;;;;;;5070849;28;20417;-67
2022/03/07 13:28:07;;;;;;;;;;;7.70;93.10;;;;;;5072038;28;19995;-66
2022/03/07 13:30:37;;;;;;;;;;;7.70;92.70;;;;;;5072368;28;19908;-67
2022/03/07 13:33:03;;;;;;;;;;;7.60;90.90;;;;;;5071558;28;19909;-66
2022/03/07 13:35:29;;;;;;;;;;;7.60;91.60;;;;;;5071989;28;20260;-67
2022/03/07 13:37:56;;;;;;;;;;;7.60;91.50;;;;;;5071775;28;19915;-67
2022/03/07 13:40:25;;;;;;;;;;;7.50;91.10;;;;;;5071909;28;20245;-66
2022/03/07 13:42:52;;;;;;;;;;;7.40;91.00;;;;;;5069497;28;19909;-67
2022/03/07 13:45:21;;;;;;;;;;;7.60;91.30;;;;;;5052449;28;19966;-66
2022/03/07 13:47:52;;;;;;;;;;;7.70;91.50;;;;;;5051277;28;19912;-66
2022/03/07 13:50:27;;;;;;;;;;;7.70;90.40;;;;;;5052436;28;20359;-67
2022/03/07 13:53:12;;;;;;;;;;;7.70;91.60;;;;;;5051114;28;19913;-66
2022/03/07 13:55:39;;;;;;;;;;;7.70;89.60;;;;;;5051454;28;19917;-66
2022/03/07 13:58:05;;;;;;;;;;;7.70;90.50;;;;;;5051211;28;19908;-66
2022/03/07 14:00:32;;;;;;;;;;;7.60;90.10;;;;;;5052887;28;19908;-67
2022/03/07 14:03:01;;;;;;;;;;;7.50;90.10;;;;;;5052178;28;20568;-67
2022/03/07 14:05:41;;;;;;;;;;;7.30;90.40;;;;;;5051899;28;19909;-66
2022/03/07 14:08:07;;;;;;;;;;;7.90;90.80;;;;;;5051597;28;19937;-66
2022/03/07 14:10:32;;;;;;;;;;;7.90;90.90;;;;;;5051583;28;20001;-67
2022/03/07 14:12:58;;;;;;;;;;;7.80;90.50;;;;;;5050014;28;20391;-66
2022/03/07 14:15:28;;;;;;;;;;;7.90;90.30;;;;;;5051570;28;20295;-66
2022/03/07 14:17:58;;;;;;;;;;;7.90;89.90;;;;;;5051150;28;20014;-66
2022/03/07 14:20:23;;;;;;;;;;;8.00;88.10;;;;;;5051509;28;19916;-66
2022/03/07 14:22:49;;;;;;;;;;;7.80;88.30;;;;;;5051529;28;19924;-66
2022/03/07 14:25:15;;;;;;;;;;;7.80;87.00;;;;;;5051175;28;19909;-66